NYCMetNet The Optical Remote Sensing Laboratory of The City College of New York
138th St. & Convent Ave., New York, NY 10031

MetNet version 1.8.2
NYCMetNet » Stations Recent History »

Select station and a new 96-hour table will be displayed.

History Location: HOPTA (AWS), Hopatcong NJ, ; lat: 40.927400, lon: -74.670800Show Data Plot » Show Wind Plot » 
DateDate TimeTime Pressure (inHg)Pressure (inHg) Rain Rate (in/hr)Rain Rate (in/hr) Relative Humidity (%)Relative Humidity (%) Temperature (F)Temperature (F) Wind Direction (from)Wind Direction (from) Wind Speed (mph)Wind Speed (mph)
07/21/2017 05:30 AM N/A N/A 100.0 70.0 SW (220.0°) 0.0
07/21/2017 05:45 AM N/A N/A 100.0 70.0 NNW (348.0°) 0.0
07/21/2017 06:00 AM N/A N/A N/A N/A N/A N/A
07/21/2017 06:15 AM 29.9 0.0 100.0 71.0 W (276.0°) 0.0
07/21/2017 06:30 AM 29.9 0.0 99.0 71.0 W (265.0°) 0.0
07/21/2017 06:45 AM 29.9 0.0 98.0 72.0 WNW (283.0°) 0.0
07/21/2017 07:00 AM N/A N/A 96.0 N/A N/A N/A
07/21/2017 07:15 AM 29.9 0.0 95.0 74.0 W (279.0°) 0.0
07/21/2017 07:30 AM 29.9 0.0 92.0 74.0 WSW (255.0°) 0.0
07/21/2017 07:45 AM N/A N/A 91.0 74.0 W (279.0°) N/A
07/21/2017 08:15 AM 30.0 0.0 87.0 75.0 NW (307.0°) 0.0
07/21/2017 08:30 AM 30.0 0.0 87.0 76.0 WNW (290.0°) 2.0
07/21/2017 09:15 AM 30.0 0.0 75.0 81.0 WSW (258.0°) 2.0
07/21/2017 09:30 AM 30.0 0.0 71.0 82.0 NNW (338.0°) 2.0
07/21/2017 09:45 AM N/A N/A N/A N/A N/A N/A
07/21/2017 10:00 AM N/A N/A N/A N/A N/A N/A
07/21/2017 10:15 AM 29.9 0.0 63.0 85.0 NNE (20.0°) 0.0
07/21/2017 10:30 AM 29.9 0.0 58.0 85.0 NNW (328.0°) 2.0
07/21/2017 10:45 AM 29.9 0.0 58.0 88.0 W (272.0°) 0.0
07/21/2017 11:15 AM 29.9 0.0 53.0 87.0 WSW (244.0°) 4.0
07/21/2017 11:30 AM 29.9 N/A 53.0 88.0 NW (314.0°) 0.0
07/21/2017 12:00 PM N/A N/A 47.0 90.0 NW (321.0°) 1.0
07/21/2017 12:45 PM 29.9 0.0 48.0 90.0 NNW (345.0°) 0.0
07/21/2017 01:15 PM 29.9 0.0 49.0 89.0 W (269.0°) 2.0
07/21/2017 01:30 PM 29.9 0.0 51.0 90.0 W (276.0°) 2.0
07/21/2017 01:45 PM 29.9 0.0 48.0 90.0 WNW (283.0°) 2.0
07/21/2017 02:00 PM 29.9 N/A 51.0 89.0 WSW (237.0°) 2.0
07/21/2017 02:15 PM 29.9 0.0 49.0 90.0 SW (224.0°) 4.0
07/21/2017 02:30 PM N/A N/A 49.0 N/A N/A N/A
07/21/2017 02:45 PM N/A N/A N/A N/A N/A N/A
07/21/2017 03:00 PM N/A N/A N/A N/A N/A N/A
07/21/2017 03:15 PM 29.9 0.0 52.0 90.0 WSW (238.0°) 4.0
07/21/2017 03:30 PM 29.9 0.0 53.0 89.0 WSW (258.0°) 5.0
07/21/2017 03:45 PM N/A N/A N/A N/A N/A N/A
07/21/2017 04:00 PM N/A N/A 55.0 89.0 WSW (238.0°) 5.0
07/21/2017 04:15 PM 29.9 0.0 54.0 89.0 S (186.0°) 3.0
07/21/2017 04:30 PM 29.9 0.0 56.0 88.0 WSW (255.0°) 4.0
07/21/2017 04:45 PM 29.9 0.0 58.0 88.0 WSW (251.0°) 2.0
07/21/2017 05:00 PM N/A N/A 55.0 88.0 SW (231.0°) 0.0
07/21/2017 05:15 PM 29.9 0.0 60.0 86.0 WSW (251.0°) 4.0
07/21/2017 05:30 PM 29.9 0.0 58.0 87.0 WSW (251.0°) 2.0
07/21/2017 05:45 PM 29.9 0.0 60.0 86.0 W (265.0°) 3.0
07/21/2017 06:00 PM N/A N/A 64.0 84.0 SW (224.0°) 0.0
07/21/2017 06:15 PM 29.9 0.0 65.0 84.0 SW (220.0°) 1.0
07/21/2017 06:30 PM 29.9 0.0 64.0 84.0 SW (224.0°) 0.0
07/21/2017 06:45 PM 29.9 0.0 66.0 84.0 SW (234.0°) 0.0
07/21/2017 07:00 PM N/A N/A 69.0 N/A N/A N/A
07/21/2017 07:15 PM 29.9 0.0 69.0 82.0 SW (217.0°) 0.0
07/21/2017 07:30 PM 29.9 0.0 70.0 81.0 SE (141.0°) 0.0
07/21/2017 07:45 PM N/A N/A 75.0 80.0 SSW (193.0°) N/A
07/21/2017 08:00 PM N/A N/A N/A N/A N/A N/A
07/21/2017 08:15 PM 29.9 0.0 77.0 79.0 SW (231.0°) 0.0
07/21/2017 08:30 PM 29.9 0.0 79.0 79.0 SSW (193.0°) 0.0
07/21/2017 08:45 PM 29.9 0.0 80.0 78.0 SSW (193.0°) 0.0
07/21/2017 09:00 PM N/A N/A 80.0 78.0 N/A N/A
07/21/2017 09:15 PM 29.9 0.0 78.0 79.0 SW (220.0°) 0.0
07/21/2017 09:30 PM 29.9 0.0 80.0 78.0 SW (217.0°) 0.0
07/21/2017 09:45 PM 29.9 N/A 80.0 79.0 SSW (200.0°) 1.0
07/21/2017 10:00 PM N/A N/A 80.0 78.0 SW (214.0°) 0.0
07/21/2017 10:15 PM 29.9 0.0 80.0 78.0 SSW (210.0°) 0.0
07/21/2017 10:30 PM 29.9 0.0 80.0 78.0 SSW (200.0°) 0.0
07/21/2017 10:45 PM N/A N/A 80.0 78.0 SW (231.0°) 0.0
07/21/2017 11:15 PM 29.9 0.0 81.0 78.0 W (269.0°) 0.0
07/21/2017 11:30 PM 29.9 0.0 81.0 78.0 WSW (238.0°) 0.0
07/21/2017 11:45 PM 29.9 0.0 82.0 78.0 NW (310.0°) 0.0
07/22/2017 12:00 AM N/A N/A 84.0 77.0 NW (314.0°) 0.0
07/22/2017 12:15 AM 29.9 0.0 85.0 76.0 WNW (286.0°) 0.0
07/22/2017 12:30 AM 29.9 0.0 86.0 76.0 WSW (248.0°) 0.0
07/22/2017 12:45 AM N/A N/A 88.0 75.0 N (0.0°) N/A
07/22/2017 01:15 AM 29.9 0.0 94.0 74.0 WSW (248.0°) 0.0
07/22/2017 01:30 AM 29.9 0.0 96.0 73.0 WSW (248.0°) 0.0
07/22/2017 01:45 AM N/A N/A 97.0 73.0 WSW (248.0°) 0.0
07/22/2017 02:00 AM N/A N/A 97.0 73.0 WSW (248.0°) 0.0
07/22/2017 02:15 AM 29.9 0.0 98.0 73.0 WSW (248.0°) 0.0
07/22/2017 02:30 AM 29.9 0.0 98.0 72.0 WSW (248.0°) 0.0
07/22/2017 02:45 AM N/A N/A 98.0 72.0 WSW (248.0°) 0.0
07/22/2017 03:15 AM 29.9 0.0 97.0 71.0 WSW (248.0°) 0.0
07/22/2017 03:30 AM 29.9 0.0 97.0 71.0 WSW (248.0°) 0.0
07/22/2017 03:45 AM 29.9 0.0 97.0 70.0 WNW (290.0°) 0.0
07/22/2017 04:00 AM N/A N/A 96.0 70.0 WNW (290.0°) N/A
07/22/2017 04:15 AM N/A N/A 96.0 70.0 WNW (290.0°) N/A
07/22/2017 04:30 AM N/A N/A 96.0 N/A N/A N/A
07/22/2017 04:45 AM 29.9 0.0 95.0 69.0 WNW (296.0°) 0.0
07/22/2017 05:00 AM N/A N/A 92.0 70.0 WNW (300.0°) 0.0
07/22/2017 05:15 AM 29.9 0.0 91.0 70.0 WNW (300.0°) 0.0
07/22/2017 05:30 AM 29.9 0.0 91.0 69.0 WNW (300.0°) 0.0
07/22/2017 05:45 AM 29.9 0.0 92.0 68.0 WNW (300.0°) 0.0
07/22/2017 06:00 AM N/A N/A 93.0 68.0 WSW (255.0°) 0.0
07/22/2017 06:15 AM 29.9 0.0 93.0 69.0 WSW (252.0°) 0.0
07/22/2017 06:30 AM 29.9 0.0 92.0 69.0 WSW (252.0°) 0.0
07/22/2017 07:15 AM 29.9 0.0 83.0 72.0 WSW (248.0°) 0.0
07/22/2017 07:30 AM 29.9 0.0 82.0 72.0 WSW (248.0°) 0.0
07/22/2017 07:45 AM N/A N/A 74.0 73.0 WSW (248.0°) 0.0
07/22/2017 08:00 AM N/A N/A 74.0 74.0 N/A N/A
07/22/2017 08:15 AM 29.9 0.0 70.0 75.0 NW (324.0°) 0.0
07/22/2017 08:30 AM 29.9 0.0 68.0 75.0 NNW (341.0°) 0.0
07/22/2017 08:45 AM N/A N/A N/A N/A N/A N/A
07/22/2017 09:00 AM N/A N/A N/A N/A N/A N/A
07/22/2017 09:15 AM 29.9 0.0 55.0 82.0 N (0.0°) 0.0
07/22/2017 09:30 AM 29.9 0.0 55.0 83.0 NNW (334.0°) 0.0
07/22/2017 09:45 AM N/A N/A 53.0 N/A N/A N/A
07/22/2017 10:15 AM 29.9 0.0 53.0 84.0 NW (310.0°) 3.0
07/22/2017 10:30 AM 29.9 0.0 51.0 86.0 NNE (31.0°) 0.0
07/22/2017 11:15 AM 29.9 0.0 45.0 88.0 W (269.0°) 2.0
07/22/2017 11:30 AM 29.9 0.0 45.0 88.0 SW (234.0°) 3.0
07/22/2017 12:00 PM N/A N/A 45.0 88.0 SW (217.0°) 2.0
07/22/2017 12:15 PM 29.9 0.0 44.0 89.0 S (189.0°) 0.0
07/22/2017 12:30 PM 29.9 0.0 43.0 90.0 NW (307.0°) 2.0
07/22/2017 01:00 PM N/A N/A N/A N/A N/A N/A
07/22/2017 01:15 PM 29.9 0.0 46.0 89.0 NW (310.0°) 1.0
07/22/2017 01:30 PM 29.9 N/A 48.0 89.0 W (259.0°) 2.0
07/22/2017 01:45 PM 29.9 0.0 43.0 90.0 WNW (296.0°) 2.0
07/22/2017 02:15 PM 29.8 0.0 47.0 89.0 WSW (238.0°) 0.0
07/22/2017 02:30 PM 29.8 0.0 49.0 88.0 WNW (297.0°) 1.0
07/22/2017 02:45 PM 29.8 0.0 50.0 88.0 S (172.0°) 0.0
07/22/2017 03:00 PM N/A N/A 48.0 N/A N/A N/A
07/22/2017 03:15 PM 29.8 0.0 50.0 88.0 WSW (258.0°) 0.0
07/22/2017 03:30 PM N/A N/A 51.0 88.0 NE (38.0°) 0.0
07/22/2017 03:45 PM N/A N/A 53.0 87.0 W (272.0°) 0.0
07/22/2017 04:15 PM 29.8 0.0 56.0 86.0 W (265.0°) 0.0
07/22/2017 04:30 PM 29.8 0.0 62.0 84.0 W (265.0°) 0.0
07/22/2017 04:45 PM 29.8 0.0 65.0 82.0 W (265.0°) 0.0
07/22/2017 05:00 PM N/A N/A 67.0 82.0 W (259.0°) N/A
07/22/2017 05:15 PM 29.8 0.0 73.0 81.0 W (259.0°) 0.0
07/22/2017 05:30 PM 29.8 0.0 77.0 79.0 W (259.0°) 0.0
07/22/2017 05:45 PM 29.8 0.0 80.0 78.0 W (259.0°) 0.0
07/22/2017 06:00 PM N/A N/A N/A N/A N/A N/A
07/22/2017 06:15 PM 29.8 0.0 80.0 78.0 W (259.0°) 0.0
07/22/2017 06:30 PM 29.8 0.0 80.0 78.0 W (259.0°) 0.0
07/22/2017 06:45 PM 29.8 0.0 80.0 78.0 W (259.0°) 0.0
07/22/2017 07:00 PM 29.8 N/A 77.0 78.0 W (259.0°) 0.0
07/22/2017 07:15 PM 29.8 0.0 76.0 78.0 W (259.0°) 0.0
07/22/2017 07:30 PM 29.8 0.0 77.0 77.0 W (259.0°) 0.0
07/22/2017 08:00 PM N/A N/A 80.0 77.0 W (259.0°) 0.0
07/22/2017 08:15 PM 29.8 0.0 82.0 77.0 W (262.0°) 0.0
07/22/2017 08:30 PM 29.8 0.0 82.0 76.0 W (262.0°) 0.0
07/22/2017 08:45 PM N/A N/A 84.0 N/A N/A N/A
07/22/2017 09:00 PM N/A N/A N/A N/A N/A N/A
07/22/2017 09:15 PM 29.8 0.0 90.0 74.0 SSE (165.0°) 0.0
07/22/2017 09:30 PM 29.8 0.0 94.0 74.0 SSE (165.0°) 0.0
07/22/2017 10:00 PM N/A N/A 97.0 74.0 SW (220.0°) 0.0
07/22/2017 10:15 PM 29.8 0.0 97.0 73.0 S (179.0°) 0.0
07/22/2017 10:30 PM 29.8 0.0 98.0 73.0 WSW (255.0°) 0.0
07/22/2017 10:45 PM N/A N/A 98.0 73.0 WSW (258.0°) N/A
07/22/2017 11:15 PM 29.8 0.0 99.0 72.0 WSW (258.0°) 0.0
07/22/2017 11:30 PM 29.8 0.0 99.0 72.0 WNW (303.0°) 0.0
07/22/2017 11:45 PM N/A N/A 99.0 72.0 W (275.0°) 0.0
07/23/2017 12:00 AM 29.8 N/A 99.0 72.0 W (279.0°) 0.0
07/23/2017 12:15 AM 29.8 0.0 99.0 72.0 WSW (241.0°) 0.0
07/23/2017 12:30 AM 29.8 0.0 99.0 71.0 NE (37.0°) 0.0
07/23/2017 12:45 AM 29.8 0.0 100.0 71.0 WSW (241.0°) 0.0
07/23/2017 01:00 AM N/A N/A 100.0 71.0 WNW (297.0°) 0.0
07/23/2017 01:15 AM 29.8 0.0 100.0 71.0 W (272.0°) 0.0
07/23/2017 01:30 AM 29.8 0.0 100.0 71.0 W (272.0°) 0.0
07/23/2017 01:45 AM N/A N/A N/A N/A N/A N/A
07/23/2017 02:15 AM 29.8 0.0 100.0 71.0 SSW (193.0°) 0.0
07/23/2017 02:30 AM N/A N/A N/A N/A N/A N/A
07/23/2017 02:45 AM N/A N/A N/A N/A N/A N/A
07/23/2017 03:00 AM N/A N/A N/A N/A N/A N/A
07/23/2017 03:15 AM 29.8 0.0 100.0 71.0 WSW (241.0°) 0.0
07/23/2017 03:30 AM 29.8 0.0 100.0 71.0 S (172.0°) 0.0
07/23/2017 03:45 AM 29.8 0.0 100.0 71.0 SSW (193.0°) 0.0
07/23/2017 04:30 AM 29.8 0.0 100.0 71.0 WSW (241.0°) 0.0
07/23/2017 04:45 AM 29.8 0.0 100.0 71.0 WSW (241.0°) 0.0
07/23/2017 05:00 AM N/A N/A 100.0 70.0 WSW (241.0°) 0.0
07/23/2017 05:15 AM 29.8 0.0 100.0 70.0 WSW (241.0°) 0.0
07/23/2017 05:30 AM 29.8 0.0 100.0 71.0 WSW (241.0°) 0.0
07/23/2017 05:45 AM N/A N/A 100.0 N/A N/A N/A
07/23/2017 06:15 AM 29.8 0.0 100.0 72.0 WSW (241.0°) 0.0
07/23/2017 06:30 AM 29.8 0.0 99.0 72.0 WSW (241.0°) 0.0
07/23/2017 06:45 AM 29.8 0.0 99.0 72.0 WSW (245.0°) 0.0
07/23/2017 07:00 AM N/A N/A 98.0 72.0 N/A N/A
07/23/2017 07:15 AM 29.8 0.0 97.0 72.0 WSW (245.0°) 0.0
07/23/2017 07:30 AM 29.8 0.0 95.0 73.0 W (276.0°) 0.0
07/23/2017 07:45 AM 29.8 0.0 94.0 73.0 W (275.0°) 0.0
07/23/2017 08:00 AM 29.8 0.0 92.0 74.0 W (275.0°) 0.0
07/23/2017 08:15 AM 29.8 0.0 89.0 74.0 WSW (237.0°) 0.0
07/23/2017 08:30 AM 29.8 0.0 87.0 75.0 SW (231.0°) 0.0
07/23/2017 08:45 AM 29.8 0.0 86.0 75.0 W (265.0°) 0.0
07/23/2017 09:00 AM N/A N/A 84.0 75.0 N/A N/A
07/23/2017 09:15 AM 29.8 0.0 82.0 77.0 WNW (289.0°) 0.0
07/23/2017 09:30 AM 29.8 0.0 79.0 77.0 SW (227.0°) 0.0
07/23/2017 09:45 AM 29.8 0.0 77.0 78.0 SE (145.0°) 0.0
07/23/2017 10:00 AM N/A N/A N/A N/A N/A N/A
07/23/2017 10:15 AM N/A N/A 78.0 78.0 S (189.0°) 0.0
07/23/2017 10:30 AM N/A N/A N/A N/A N/A N/A
07/23/2017 11:00 AM N/A N/A 77.0 78.0 SSW (193.0°) N/A
07/23/2017 11:15 AM 29.8 0.0 76.0 78.0 S (186.0°) 0.0
07/23/2017 11:30 AM 29.8 0.0 77.0 78.0 NNW (348.0°) 0.0
07/23/2017 12:15 PM 29.8 0.0 75.0 79.0 (352.0°) 0.0
07/23/2017 12:30 PM 29.8 0.0 73.0 80.0 NE (55.0°) 0.0
07/23/2017 12:45 PM 29.8 0.0 73.0 80.0 SSW (207.0°) 0.0
07/23/2017 01:00 PM N/A N/A 72.0 79.0 S (169.0°) N/A
07/23/2017 01:15 PM 29.8 0.0 76.0 78.0 SSE (158.0°) 2.0
07/23/2017 01:30 PM 29.8 0.0 77.0 79.0 SE (144.0°) 0.0
07/23/2017 01:45 PM 29.8 0.0 80.0 77.0 E (82.0°) 0.0
07/23/2017 02:00 PM N/A N/A 83.0 76.0 NE (51.0°) 0.0
07/23/2017 02:15 PM 29.8 0.0 86.0 74.0 S (179.0°) 2.0
07/23/2017 02:30 PM 29.8 0.0 87.0 74.0 WSW (251.0°) 0.0
07/23/2017 02:45 PM 29.8 0.0 91.0 73.0 WNW (293.0°) 0.0
07/23/2017 03:00 PM 29.8 N/A 92.0 75.0 NW (310.0°) 0.0
07/23/2017 03:15 PM 29.8 0.0 83.0 79.0 SSW (196.0°) 1.0
07/23/2017 03:30 PM 29.8 0.0 76.0 79.0 ENE (65.0°) 2.0
07/23/2017 03:45 PM 29.8 0.0 81.0 77.0 SSE (162.0°) 0.0
07/23/2017 04:00 PM N/A N/A 83.0 76.0 SSW (206.0°) 0.0
07/23/2017 04:15 PM 29.8 0.0 85.0 75.0 SSE (165.0°) 0.0
07/23/2017 04:30 PM 29.8 0.0 86.0 75.0 ESE (120.0°) 0.0
07/23/2017 04:45 PM 29.8 0.0 87.0 75.0 SW (227.0°) 0.0
07/23/2017 05:00 PM N/A N/A 87.0 75.0 N/A N/A
07/23/2017 05:15 PM 29.8 0.0 86.0 76.0 SE (130.0°) 0.0
07/23/2017 05:30 PM 29.8 0.0 84.0 76.0 SSW (193.0°) 0.0
07/23/2017 05:45 PM N/A N/A 77.0 77.0 SSW (196.0°) 2.0
07/23/2017 06:15 PM 29.8 0.0 75.0 76.0 SSW (196.0°) 2.0
07/23/2017 06:30 PM 29.8 0.0 76.0 75.0 SE (138.0°) 0.0
07/23/2017 06:45 PM 29.8 N/A 80.0 74.0 WSW (258.0°) 0.0
07/23/2017 07:15 PM 29.8 0.0 86.0 72.0 W (272.0°) 3.0
07/23/2017 07:30 PM 29.8 0.0 87.0 72.0 S (186.0°) 1.0
07/23/2017 07:45 PM N/A N/A N/A N/A N/A N/A
07/23/2017 08:00 PM N/A N/A N/A N/A N/A N/A
07/23/2017 08:15 PM 29.9 0.0 90.0 71.0 S (182.0°) 2.0
07/23/2017 08:30 PM 29.9 0.0 91.0 71.0 SE (127.0°) 1.0
07/23/2017 08:45 PM 29.9 0.0 92.0 71.0 S (183.0°) 2.0
07/23/2017 09:00 PM N/A N/A 92.0 71.0 S (175.0°) 0.0
07/23/2017 09:15 PM 29.8 0.0 94.0 70.0 (359.0°) 1.0
07/23/2017 09:30 PM 29.8 0.0 95.0 70.0 W (269.0°) 1.0
07/23/2017 09:45 PM 29.8 0.0 95.0 70.0 SSW (203.0°) 0.0
07/23/2017 10:00 PM N/A N/A 96.0 N/A N/A N/A
07/23/2017 10:15 PM N/A N/A 96.0 N/A N/A N/A
07/23/2017 10:30 PM 29.9 0.0 97.0 70.0 WSW (255.0°) 0.0
07/23/2017 10:45 PM 29.9 0.0 98.0 69.0 S (182.0°) 2.0
07/23/2017 11:00 PM N/A N/A 98.0 N/A N/A N/A
07/23/2017 11:15 PM 29.8 0.0 98.0 69.0 NW (321.0°) 1.0
07/23/2017 11:30 PM 29.8 0.0 99.0 69.0 ESE (120.0°) 0.0
07/24/2017 12:15 AM 29.8 0.0 99.0 69.0 N (10.0°) 0.0
07/24/2017 12:30 AM 29.8 0.0 99.0 69.0 WSW (252.0°) 0.0
07/24/2017 12:45 AM 29.8 0.0 98.0 69.0 NNW (338.0°) 0.0
07/24/2017 01:00 AM N/A N/A 98.0 69.0 SSE (162.0°) 0.0
07/24/2017 01:15 AM 29.8 0.0 99.0 69.0 NNW (334.0°) 0.0
07/24/2017 01:30 AM 29.8 0.0 99.0 69.0 SSW (200.0°) 0.0
07/24/2017 02:15 AM 29.8 0.0 98.0 69.0 (351.0°) 0.0
07/24/2017 02:30 AM 29.8 0.0 98.0 69.0 SSE (162.0°) 0.0
07/24/2017 02:45 AM 29.8 0.0 98.0 69.0 WNW (282.0°) 0.0
07/24/2017 03:00 AM N/A N/A N/A N/A N/A N/A
07/24/2017 03:15 AM 29.8 0.0 99.0 68.0 NNW (335.0°) 1.0
07/24/2017 04:15 AM 29.8 0.0 100.0 67.0 NW (314.0°) 0.0
07/24/2017 04:30 AM 29.8 0.0 100.0 67.0 WSW (238.0°) 1.0
07/24/2017 05:15 AM 29.8 0.0 100.0 67.0 WSW (238.0°) 1.0
07/24/2017 05:30 AM 29.8 0.0 100.0 67.0 WSW (255.0°) 1.0
07/24/2017 06:00 AM N/A N/A 100.0 67.0 N (0.0°) N/A
07/24/2017 06:15 AM 29.8 0.0 100.0 67.0 NW (314.0°) 2.0
07/24/2017 06:30 AM 29.8 0.0 100.0 66.0 SSE (155.0°) 5.0
07/24/2017 06:45 AM 29.8 0.0 100.0 66.0 ENE (58.0°) 1.0
07/24/2017 07:00 AM N/A N/A 100.0 66.0 E (82.0°) 0.0
07/24/2017 07:15 AM 29.8 0.0 100.0 66.0 NNE (20.0°) 0.0
07/24/2017 07:30 AM 29.8 0.0 100.0 66.0 NNW (338.0°) 0.0
07/24/2017 07:45 AM N/A N/A N/A N/A N/A N/A
07/24/2017 08:15 AM 29.8 0.0 100.0 63.0 N (7.0°) 0.0
07/24/2017 08:30 AM 29.8 0.0 100.0 63.0 NNW (345.0°) 1.0
07/24/2017 08:45 AM N/A N/A N/A N/A N/A N/A
07/24/2017 09:00 AM N/A N/A N/A N/A N/A N/A
07/24/2017 09:15 AM 29.8 0.0 100.0 66.0 NNE (31.0°) 0.0
07/24/2017 09:45 AM 29.8 0.0 95.0 69.0 N (0.0°) 1.0
07/24/2017 10:15 AM 29.8 0.0 84.0 70.0 NW (313.0°) 0.0
07/24/2017 10:30 AM 29.8 0.0 80.0 73.0 (358.0°) 0.0
07/24/2017 10:45 AM 29.8 0.0 76.0 73.0 E (93.0°) 0.0
07/24/2017 11:15 AM N/A N/A 75.0 74.0 N/A N/A
07/24/2017 11:30 AM 29.8 0.0 73.0 76.0 NE (41.0°) 0.0
07/24/2017 12:00 PM N/A N/A 72.0 74.0 NW (313.0°) N/A
07/24/2017 12:15 PM 29.8 0.0 72.0 75.0 NNW (335.0°) 0.0
07/24/2017 12:30 PM 29.8 0.0 72.0 75.0 N (10.0°) 0.0
07/24/2017 12:45 PM N/A N/A N/A N/A N/A N/A
07/24/2017 01:15 PM 29.8 0.0 76.0 73.0 NNE (27.0°) 0.0
07/24/2017 01:30 PM 29.8 0.0 72.0 75.0 SW (220.0°) 0.0
07/24/2017 01:45 PM 29.8 0.0 72.0 75.0 WSW (237.0°) 0.0
07/24/2017 02:00 PM N/A N/A 72.0 74.0 NW (324.0°) N/A
07/24/2017 02:15 PM N/A N/A 73.0 75.0 N/A N/A
07/24/2017 03:00 PM N/A N/A N/A N/A N/A N/A
07/24/2017 03:15 PM 29.8 0.0 72.0 74.0 SSE (162.0°) 0.0
07/24/2017 03:30 PM 29.8 0.0 74.0 75.0 SSE (155.0°) 0.0
07/24/2017 04:00 PM N/A N/A N/A N/A N/A N/A
07/24/2017 04:15 PM N/A N/A 72.0 76.0 WNW (297.0°) 2.0
07/24/2017 05:00 PM N/A N/A 72.0 74.0 N/A N/A
07/24/2017 05:15 PM 29.9 0.0 80.0 71.0 NNW (344.0°) 0.0
07/24/2017 05:30 PM 29.9 0.0 84.0 69.0 ESE (107.0°) 0.0
07/24/2017 05:45 PM 29.9 0.0 86.0 69.0 WSW (251.0°) 0.0
07/24/2017 06:00 PM N/A N/A 87.0 68.0 SE (145.0°) 0.0
07/24/2017 06:15 PM 29.9 0.0 89.0 67.0 WNW (283.0°) 0.0
07/24/2017 06:30 PM 29.9 0.0 92.0 66.0 SSW (207.0°) 0.0
07/24/2017 06:45 PM N/A N/A 95.0 66.0 N/A N/A
07/24/2017 07:15 PM 29.9 0.0 96.0 66.0 SE (131.0°) 0.0
07/24/2017 07:30 PM 29.9 0.0 96.0 65.0 NW (313.0°) 0.0
07/24/2017 07:45 PM 29.9 N/A 97.0 65.0 W (265.0°) 0.0
07/24/2017 08:00 PM N/A N/A N/A N/A N/A N/A
07/24/2017 08:15 PM 29.9 0.0 98.0 65.0 SE (138.0°) 0.0
07/24/2017 08:30 PM 29.9 0.0 98.0 64.0 NE (38.0°) 0.0
07/24/2017 08:45 PM 29.9 0.0 98.0 64.0 NNE (24.0°) 0.0
07/24/2017 09:00 PM N/A N/A 98.0 64.0 SE (134.0°) 0.0
07/24/2017 09:15 PM 29.9 0.0 98.0 63.0 ESE (103.0°) 0.0
07/24/2017 09:30 PM 29.9 0.0 98.0 63.0 S (176.0°) 0.0
07/24/2017 10:15 PM 29.9 0.0 98.0 64.0 SSE (148.0°) 0.0
07/24/2017 10:30 PM 29.9 0.0 98.0 63.0 S (172.0°) 2.0
07/24/2017 11:00 PM N/A N/A 98.0 N/A N/A N/A
07/24/2017 11:15 PM 29.9 0.0 97.0 63.0 SE (134.0°) 0.0
07/24/2017 11:30 PM 30.0 0.0 97.0 63.0 SSE (162.0°) 0.0
07/24/2017 11:45 PM 30.0 0.0 97.0 62.0 SSW (203.0°) 0.0
07/25/2017 12:00 AM N/A N/A 96.0 62.0 N/A N/A
07/25/2017 12:15 AM N/A N/A 97.0 62.0 SSE (165.0°) 0.0
07/25/2017 12:30 AM N/A N/A 97.0 62.0 NNW (335.0°) 0.0
07/25/2017 01:15 AM 30.0 0.0 98.0 61.0 SSE (168.0°) 2.0
07/25/2017 01:30 AM 30.0 0.0 98.0 61.0 NNW (334.0°) 0.0
07/25/2017 01:45 AM N/A N/A 99.0 61.0 SW (214.0°) N/A
07/25/2017 02:00 AM N/A N/A 99.0 61.0 SSW (200.0°) 0.0
07/25/2017 02:15 AM 30.0 0.0 99.0 60.0 S (176.0°) 0.0
07/25/2017 02:30 AM 30.0 0.0 100.0 60.0 S (172.0°) 0.0
07/25/2017 03:00 AM N/A N/A 100.0 N/A N/A N/A
07/25/2017 03:15 AM 30.0 0.0 100.0 60.0 S (189.0°) 0.0
07/25/2017 03:30 AM 30.0 0.0 100.0 60.0 SSW (203.0°) 1.0
07/25/2017 03:45 AM N/A N/A N/A N/A N/A N/A
07/25/2017 04:15 AM 30.0 0.0 100.0 60.0 SW (217.0°) 0.0
07/25/2017 04:30 AM 30.0 0.0 100.0 60.0 SSE (158.0°) 0.0
07/25/2017 05:15 AM 30.0 0.0 100.0 60.0 S (169.0°) 0.0

ESRL/GSD and its data providers disclaim liability of any kind whatsoever, including, without limitation, liability for quality, performance,
merchantability and fitness for a particular purpose arising out of the use or inability to use the data presented herein.
Part of the The City College of New York's Urban Dispersion Program (UDP) for the City of New York © Copyright 2012

Program Code Copyright © Thomas Legbandt 2010 - 2014
About | Contact Us | Security & Privacy | Data Usage